sensor_id;sensor_type;location;lat;lon;timestamp;pressure;altitude;pressure_sealevel;temperature;humidity
11971;BME280;6045;42.682;23.294;2023-05-16T00:01:38;94363.81;;;15.03;88.88
11971;BME280;6045;42.682;23.294;2023-05-16T00:04:05;94354.91;;;14.98;89.06
11971;BME280;6045;42.682;23.294;2023-05-16T00:06:32;94359.75;;;15.01;89.46
11971;BME280;6045;42.682;23.294;2023-05-16T00:08:59;94355.72;;;14.98;88.91
11971;BME280;6045;42.682;23.294;2023-05-16T00:11:26;94353.28;;;14.97;89.60
11971;BME280;6045;42.682;23.294;2023-05-16T00:13:53;94354.13;;;15.02;89.38
11971;BME280;6045;42.682;23.294;2023-05-16T00:16:22;94346.84;;;15.03;89.06
11971;BME280;6045;42.682;23.294;2023-05-16T00:18:50;94345.75;;;14.99;88.99
11971;BME280;6045;42.682;23.294;2023-05-16T00:21:17;94346.81;;;14.93;89.77
11971;BME280;6045;42.682;23.294;2023-05-16T00:23:44;94352.72;;;14.90;89.94
11971;BME280;6045;42.682;23.294;2023-05-16T00:26:11;94347.34;;;14.90;89.75
11971;BME280;6045;42.682;23.294;2023-05-16T00:28:37;94342.47;;;14.87;90.30
11971;BME280;6045;42.682;23.294;2023-05-16T00:31:04;94346.25;;;14.91;90.17
11971;BME280;6045;42.682;23.294;2023-05-16T00:33:33;94342.00;;;14.95;89.92
11971;BME280;6045;42.682;23.294;2023-05-16T00:36:00;94342.00;;;14.95;90.38
11971;BME280;6045;42.682;23.294;2023-05-16T00:38:27;94338.47;;;14.94;89.87
11971;BME280;6045;42.682;23.294;2023-05-16T00:40:54;94329.31;;;14.85;90.25
11971;BME280;6045;42.682;23.294;2023-05-16T00:43:20;94327.19;;;14.97;90.05
11971;BME280;6045;42.682;23.294;2023-05-16T00:45:47;94320.47;;;15.05;90.02
11971;BME280;6045;42.682;23.294;2023-05-16T00:48:14;94312.38;;;14.95;89.90
11971;BME280;6045;42.682;23.294;2023-05-16T00:50:42;94308.31;;;14.87;89.94
11971;BME280;6045;42.682;23.294;2023-05-16T00:53:09;94298.34;;;14.83;90.21
11971;BME280;6045;42.682;23.294;2023-05-16T00:55:37;94300.25;;;14.87;89.50
11971;BME280;6045;42.682;23.294;2023-05-16T00:58:04;94304.25;;;14.85;89.59
11971;BME280;6045;42.682;23.294;2023-05-16T01:00:32;94305.06;;;14.80;89.32
11971;BME280;6045;42.682;23.294;2023-05-16T01:02:58;94309.88;;;14.73;89.67
11971;BME280;6045;42.682;23.294;2023-05-16T01:05:26;94304.00;;;14.86;89.55
11971;BME280;6045;42.682;23.294;2023-05-16T01:07:55;94301.78;;;14.73;90.26
11971;BME280;6045;42.682;23.294;2023-05-16T01:10:22;94300.47;;;14.76;90.58
11971;BME280;6045;42.682;23.294;2023-05-16T01:12:56;94305.63;;;14.87;90.35
11971;BME280;6045;42.682;23.294;2023-05-16T01:15:28;94300.78;;;14.89;90.11
11971;BME280;6045;42.682;23.294;2023-05-16T01:17:59;94300.50;;;14.86;90.65
11971;BME280;6045;42.682;23.294;2023-05-16T01:20:38;94297.53;;;14.82;90.62
11971;BME280;6045;42.682;23.294;2023-05-16T01:23:18;94298.59;;;14.86;90.45
11971;BME280;6045;42.682;23.294;2023-05-16T01:26:15;94293.53;;;14.90;90.15
11971;BME280;6045;42.682;23.294;2023-05-16T01:28:45;94291.38;;;14.92;89.80
11971;BME280;6045;42.682;23.294;2023-05-16T01:31:12;94285.19;;;14.91;90.20
11971;BME280;6045;42.682;23.294;2023-05-16T01:33:39;94283.31;;;14.97;89.29
11971;BME280;6045;42.682;23.294;2023-05-16T01:36:11;94276.84;;;14.88;89.39
11971;BME280;6045;42.682;23.294;2023-05-16T01:38:43;94268.75;;;14.88;89.67
11971;BME280;6045;42.682;23.294;2023-05-16T01:41:17;94272.25;;;14.93;89.20
11971;BME280;6045;42.682;23.294;2023-05-16T01:43:48;94263.94;;;14.95;89.10
11971;BME280;6045;42.682;23.294;2023-05-16T01:46:20;94259.38;;;15.05;88.72
11971;BME280;6045;42.682;23.294;2023-05-16T01:48:52;94261.25;;;15.05;88.55
11971;BME280;6045;42.682;23.294;2023-05-16T01:51:27;94265.31;;;15.02;88.33
11971;BME280;6045;42.682;23.294;2023-05-16T01:53:58;94260.47;;;15.04;88.45
11971;BME280;6045;42.682;23.294;2023-05-16T01:56:30;94252.66;;;15.13;88.23
11971;BME280;6045;42.682;23.294;2023-05-16T01:58:58;94254.00;;;15.05;88.52
11971;BME280;6045;42.682;23.294;2023-05-16T02:01:26;94251.84;;;15.02;88.64
11971;BME280;6045;42.682;23.294;2023-05-16T02:03:53;94252.09;;;15.01;88.18
11971;BME280;6045;42.682;23.294;2023-05-16T02:06:20;94245.38;;;14.88;88.56
11971;BME280;6045;42.682;23.294;2023-05-16T02:08:47;94261.75;;;14.87;88.86
11971;BME280;6045;42.682;23.294;2023-05-16T02:11:14;94261.22;;;14.85;88.35
11971;BME280;6045;42.682;23.294;2023-05-16T02:13:53;94250.72;;;14.83;88.25
11971;BME280;6045;42.682;23.294;2023-05-16T02:16:25;94253.91;;;14.75;88.34
11971;BME280;6045;42.682;23.294;2023-05-16T02:18:51;94254.69;;;14.66;89.08
11971;BME280;6045;42.682;23.294;2023-05-16T02:21:18;94250.41;;;14.65;88.98
11971;BME280;6045;42.682;23.294;2023-05-16T02:23:45;94244.19;;;14.64;89.51
11971;BME280;6045;42.682;23.294;2023-05-16T02:26:12;94251.72;;;14.62;89.32
11971;BME280;6045;42.682;23.294;2023-05-16T02:28:39;94247.44;;;14.71;90.11
11971;BME280;6045;42.682;23.294;2023-05-16T02:31:07;94250.88;;;14.57;90.55
11971;BME280;6045;42.682;23.294;2023-05-16T02:33:33;94245.75;;;14.50;91.03
11971;BME280;6045;42.682;23.294;2023-05-16T02:36:00;94261.06;;;14.45;91.76
11971;BME280;6045;42.682;23.294;2023-05-16T02:38:28;94264.25;;;14.36;92.12
11971;BME280;6045;42.682;23.294;2023-05-16T02:40:54;94267.16;;;14.30;92.61
11971;BME280;6045;42.682;23.294;2023-05-16T02:43:21;94260.63;;;14.21;92.83
11971;BME280;6045;42.682;23.294;2023-05-16T02:45:48;94260.88;;;14.14;93.91
11971;BME280;6045;42.682;23.294;2023-05-16T02:48:16;94257.13;;;14.20;94.08
11971;BME280;6045;42.682;23.294;2023-05-16T02:50:43;94243.47;;;14.27;93.65
11971;BME280;6045;42.682;23.294;2023-05-16T02:53:09;94232.22;;;14.30;94.09
11971;BME280;6045;42.682;23.294;2023-05-16T02:55:36;94241.66;;;14.37;93.55
11971;BME280;6045;42.682;23.294;2023-05-16T02:58:03;94242.75;;;14.42;93.38
11971;BME280;6045;42.682;23.294;2023-05-16T03:00:30;94245.22;;;14.48;93.16
11971;BME280;6045;42.682;23.294;2023-05-16T03:02:56;94246.84;;;14.54;92.39
11971;BME280;6045;42.682;23.294;2023-05-16T03:05:24;94239.84;;;14.48;92.12
11971;BME280;6045;42.682;23.294;2023-05-16T03:07:51;94239.06;;;14.53;91.89
11971;BME280;6045;42.682;23.294;2023-05-16T03:10:18;94235.56;;;14.57;92.09
11971;BME280;6045;42.682;23.294;2023-05-16T03:12:45;94236.66;;;14.61;92.11
11971;BME280;6045;42.682;23.294;2023-05-16T03:15:11;94232.34;;;14.60;92.00
11971;BME280;6045;42.682;23.294;2023-05-16T03:17:38;94236.06;;;14.49;92.32
11971;BME280;6045;42.682;23.294;2023-05-16T03:20:06;94238.22;;;14.52;92.49
11971;BME280;6045;42.682;23.294;2023-05-16T03:22:36;94246.28;;;14.47;92.29
11971;BME280;6045;42.682;23.294;2023-05-16T03:25:05;94237.41;;;14.47;93.26
11971;BME280;6045;42.682;23.294;2023-05-16T03:27:32;94230.63;;;14.34;93.41
11971;BME280;6045;42.682;23.294;2023-05-16T03:29:59;94244.03;;;14.29;93.37
11971;BME280;6045;42.682;23.294;2023-05-16T03:32:25;94243.19;;;14.23;93.87
11971;BME280;6045;42.682;23.294;2023-05-16T03:34:52;94232.13;;;14.15;94.18
11971;BME280;6045;42.682;23.294;2023-05-16T03:37:19;94236.38;;;14.11;94.51
11971;BME280;6045;42.682;23.294;2023-05-16T03:39:47;94233.19;;;14.14;94.34
11971;BME280;6045;42.682;23.294;2023-05-16T03:42:14;94236.63;;;14.04;94.67
11971;BME280;6045;42.682;23.294;2023-05-16T03:44:41;94227.53;;;14.10;95.27
11971;BME280;6045;42.682;23.294;2023-05-16T03:47:08;94227.81;;;14.14;95.01
11971;BME280;6045;42.682;23.294;2023-05-16T03:49:35;94235.91;;;14.19;95.32
11971;BME280;6045;42.682;23.294;2023-05-16T03:52:02;94233.75;;;14.21;95.38
11971;BME280;6045;42.682;23.294;2023-05-16T03:54:29;94219.81;;;14.29;95.62
11971;BME280;6045;42.682;23.294;2023-05-16T03:56:57;94231.44;;;14.34;95.29
11971;BME280;6045;42.682;23.294;2023-05-16T03:59:24;94231.69;;;14.33;94.64
11971;BME280;6045;42.682;23.294;2023-05-16T04:01:51;94234.59;;;14.26;94.00
11971;BME280;6045;42.682;23.294;2023-05-16T04:04:17;94240.22;;;14.20;93.84
11971;BME280;6045;42.682;23.294;2023-05-16T04:06:45;94230.59;;;14.29;95.55
11971;BME280;6045;42.682;23.294;2023-05-16T04:09:11;94230.38;;;14.35;95.97
11971;BME280;6045;42.682;23.294;2023-05-16T04:11:38;94235.38;;;14.79;100.00
11971;BME280;6045;42.682;23.294;2023-05-16T04:14:06;94237.81;;;14.90;98.76
11971;BME280;6045;42.682;23.294;2023-05-16T04:16:33;94235.72;;;15.02;94.20
11971;BME280;6045;42.682;23.294;2023-05-16T04:21:45;94239.78;;;15.45;90.33
11971;BME280;6045;42.682;23.294;2023-05-16T04:24:11;94234.44;;;15.60;88.91
11971;BME280;6045;42.682;23.294;2023-05-16T04:26:38;94237.66;;;15.47;87.71
11971;BME280;6045;42.682;23.294;2023-05-16T04:29:06;94236.03;;;15.51;88.98
11971;BME280;6045;42.682;23.294;2023-05-16T04:31:33;94231.44;;;15.62;87.61
11971;BME280;6045;42.682;23.294;2023-05-16T04:34:01;94229.00;;;15.86;92.06
11971;BME280;6045;42.682;23.294;2023-05-16T04:36:28;94230.63;;;15.92;89.13
11971;BME280;6045;42.682;23.294;2023-05-16T04:38:56;94229.00;;;16.01;89.88
11971;BME280;6045;42.682;23.294;2023-05-16T04:41:22;94226.53;;;16.04;87.65
11971;BME280;6045;42.682;23.294;2023-05-16T04:43:49;94223.06;;;16.04;87.81
11971;BME280;6045;42.682;23.294;2023-05-16T04:46:17;94225.78;;;15.99;85.44
11971;BME280;6045;42.682;23.294;2023-05-16T04:48:45;94222.78;;;16.00;85.83
11971;BME280;6045;42.682;23.294;2023-05-16T04:51:12;94227.94;;;15.71;85.41
11971;BME280;6045;42.682;23.294;2023-05-16T04:53:38;94228.75;;;15.82;86.67
11971;BME280;6045;42.682;23.294;2023-05-16T04:56:06;94226.59;;;15.69;86.04
11971;BME280;6045;42.682;23.294;2023-05-16T04:58:33;94220.66;;;15.67;85.96
11971;BME280;6045;42.682;23.294;2023-05-16T05:01:00;94220.66;;;15.62;85.23
11971;BME280;6045;42.682;23.294;2023-05-16T05:03:28;94221.22;;;15.54;86.17
11971;BME280;6045;42.682;23.294;2023-05-16T05:05:55;94217.72;;;15.53;86.17
11971;BME280;6045;42.682;23.294;2023-05-16T05:08:21;94223.66;;;15.50;85.46
11971;BME280;6045;42.682;23.294;2023-05-16T05:10:48;94222.28;;;15.53;84.52
11971;BME280;6045;42.682;23.294;2023-05-16T05:13:15;94229.03;;;15.50;85.23
11971;BME280;6045;42.682;23.294;2023-05-16T05:15:42;94234.41;;;15.50;85.02
11971;BME280;6045;42.682;23.294;2023-05-16T05:18:09;94230.91;;;15.55;84.79
11971;BME280;6045;42.682;23.294;2023-05-16T05:20:39;94226.59;;;15.64;85.38
11971;BME280;6045;42.682;23.294;2023-05-16T05:23:05;94221.19;;;15.64;84.37
11971;BME280;6045;42.682;23.294;2023-05-16T05:25:33;94226.59;;;15.64;84.50
11971;BME280;6045;42.682;23.294;2023-05-16T05:28:00;94226.06;;;15.62;82.93
11971;BME280;6045;42.682;23.294;2023-05-16T05:30:28;94225.00;;;15.63;84.23
11971;BME280;6045;42.682;23.294;2023-05-16T05:32:55;94215.28;;;15.72;83.75
11971;BME280;6045;42.682;23.294;2023-05-16T05:35:22;94216.09;;;15.72;83.49
11971;BME280;6045;42.682;23.294;2023-05-16T05:37:51;94209.88;;;15.87;85.02
11971;BME280;6045;42.682;23.294;2023-05-16T05:40:17;94206.38;;;15.87;83.56
11971;BME280;6045;42.682;23.294;2023-05-16T05:42:44;94203.69;;;15.87;83.33
11971;BME280;6045;42.682;23.294;2023-05-16T05:45:11;94202.34;;;15.84;82.83
11971;BME280;6045;42.682;23.294;2023-05-16T05:47:37;94199.34;;;15.96;83.57
11971;BME280;6045;42.682;23.294;2023-05-16T05:50:06;94195.81;;;16.05;82.83
11971;BME280;6045;42.682;23.294;2023-05-16T05:52:33;94193.66;;;16.02;81.98
11971;BME280;6045;42.682;23.294;2023-05-16T05:55:01;94187.72;;;16.05;82.72
11971;BME280;6045;42.682;23.294;2023-05-16T05:57:27;94189.59;;;16.10;81.71
11971;BME280;6045;42.682;23.294;2023-05-16T05:59:54;94191.53;;;15.94;81.19
11971;BME280;6045;42.682;23.294;2023-05-16T06:02:21;94202.03;;;16.01;82.07
11971;BME280;6045;42.682;23.294;2023-05-16T06:04:48;94195.81;;;16.00;81.84
11971;BME280;6045;42.682;23.294;2023-05-16T06:07:14;94197.47;;;16.01;82.43
11971;BME280;6045;42.682;23.294;2023-05-16T06:09:42;94202.84;;;16.01;81.82
11971;BME280;6045;42.682;23.294;2023-05-16T06:12:11;94195.53;;;16.07;81.48
11971;BME280;6045;42.682;23.294;2023-05-16T06:14:38;94200.97;;;15.97;82.33
11971;BME280;6045;42.682;23.294;2023-05-16T06:17:05;94206.63;;;16.00;81.85
11971;BME280;6045;42.682;23.294;2023-05-16T06:19:32;94204.97;;;15.99;82.22
11971;BME280;6045;42.682;23.294;2023-05-16T06:21:58;94206.31;;;16.02;81.48
11971;BME280;6045;42.682;23.294;2023-05-16T06:24:25;94201.22;;;16.00;81.22
11971;BME280;6045;42.682;23.294;2023-05-16T06:26:54;94201.75;;;15.92;82.06
11971;BME280;6045;42.682;23.294;2023-05-16T06:29:22;94200.97;;;15.92;81.38
11971;BME280;6045;42.682;23.294;2023-05-16T06:31:48;94200.97;;;15.92;81.65
11971;BME280;6045;42.682;23.294;2023-05-16T06:34:15;94196.38;;;15.92;81.59
11971;BME280;6045;42.682;23.294;2023-05-16T06:40:08;94163.47;;;16.00;81.02
11971;BME280;6045;42.682;23.294;2023-05-16T06:42:35;94162.94;;;16.03;80.00
11971;BME280;6045;42.682;23.294;2023-05-16T06:45:04;94165.34;;;16.10;79.35
11971;BME280;6045;42.682;23.294;2023-05-16T06:47:31;94162.63;;;16.15;79.67
11971;BME280;6045;42.682;23.294;2023-05-16T06:49:57;94167.72;;;16.16;79.15
11971;BME280;6045;42.682;23.294;2023-05-16T06:52:24;94177.44;;;16.22;78.26
11971;BME280;6045;42.682;23.294;2023-05-16T06:54:51;94163.41;;;16.20;78.24
11971;BME280;6045;42.682;23.294;2023-05-16T06:57:18;94152.06;;;16.23;77.69
11971;BME280;6045;42.682;23.294;2023-05-16T06:59:45;94153.16;;;16.22;77.45
11971;BME280;6045;42.682;23.294;2023-05-16T07:02:13;94151.25;;;16.23;77.21
11971;BME280;6045;42.682;23.294;2023-05-16T07:04:39;94146.41;;;16.25;77.55
11971;BME280;6045;42.682;23.294;2023-05-16T07:07:06;94168.22;;;16.28;77.79
11971;BME280;6045;42.682;23.294;2023-05-16T07:09:33;94151.25;;;16.28;77.75
11971;BME280;6045;42.682;23.294;2023-05-16T07:12:00;94135.84;;;16.33;77.83
11971;BME280;6045;42.682;23.294;2023-05-16T07:14:27;94139.59;;;16.37;77.69
11971;BME280;6045;42.682;23.294;2023-05-16T07:16:54;94136.09;;;16.37;78.19
11971;BME280;6045;42.682;23.294;2023-05-16T07:19:22;94143.63;;;16.40;77.24
11971;BME280;6045;42.682;23.294;2023-05-16T07:21:49;94129.59;;;16.48;76.77
11971;BME280;6045;42.682;23.294;2023-05-16T07:24:16;94126.59;;;16.50;76.66
11971;BME280;6045;42.682;23.294;2023-05-16T07:26:42;94137.13;;;16.51;76.43
11971;BME280;6045;42.682;23.294;2023-05-16T07:29:10;94117.44;;;16.56;76.58
11971;BME280;6045;42.682;23.294;2023-05-16T07:31:36;94135.19;;;16.62;76.77
11971;BME280;6045;42.682;23.294;2023-05-16T07:34:03;94134.66;;;16.60;76.25
11971;BME280;6045;42.682;23.294;2023-05-16T07:36:32;94137.34;;;16.65;76.82
11971;BME280;6045;42.682;23.294;2023-05-16T07:38:59;94145.97;;;16.67;76.77
11971;BME280;6045;42.682;23.294;2023-05-16T07:41:31;94158.84;;;16.75;76.85
11971;BME280;6045;42.682;23.294;2023-05-16T07:43:58;94162.63;;;16.79;76.90
11971;BME280;6045;42.682;23.294;2023-05-16T07:46:25;94159.34;;;16.82;76.89
11971;BME280;6045;42.682;23.294;2023-05-16T07:48:51;94136.03;;;16.96;76.60
11971;BME280;6045;42.682;23.294;2023-05-16T07:51:18;94140.59;;;17.00;75.73
11971;BME280;6045;42.682;23.294;2023-05-16T07:53:46;94135.16;;;17.05;75.58
11971;BME280;6045;42.682;23.294;2023-05-16T07:56:13;94134.94;;;17.02;75.39
11971;BME280;6045;42.682;23.294;2023-05-16T07:58:40;94130.88;;;17.04;75.57
11971;BME280;6045;42.682;23.294;2023-05-16T08:01:07;94130.03;;;17.09;75.00
11971;BME280;6045;42.682;23.294;2023-05-16T08:03:34;94137.31;;;17.08;74.26
11971;BME280;6045;42.682;23.294;2023-05-16T08:06:01;94113.84;;;17.04;74.21
11971;BME280;6045;42.682;23.294;2023-05-16T08:08:27;94123.59;;;17.05;73.99
11971;BME280;6045;42.682;23.294;2023-05-16T08:10:56;94124.09;;;17.07;73.64
11971;BME280;6045;42.682;23.294;2023-05-16T08:13:22;94135.38;;;17.14;74.16
11971;BME280;6045;42.682;23.294;2023-05-16T08:15:49;94118.34;;;17.19;73.63
11971;BME280;6045;42.682;23.294;2023-05-16T08:18:18;94101.84;;;17.20;73.18
11971;BME280;6045;42.682;23.294;2023-05-16T08:20:45;94119.63;;;17.26;73.63
11971;BME280;6045;42.682;23.294;2023-05-16T08:23:13;94112.47;;;17.40;73.27
11971;BME280;6045;42.682;23.294;2023-05-16T08:25:40;94109.09;;;17.58;73.19
11971;BME280;6045;42.682;23.294;2023-05-16T08:28:08;94109.16;;;17.77;72.41
11971;BME280;6045;42.682;23.294;2023-05-16T08:30:35;94113.16;;;17.85;72.21
11971;BME280;6045;42.682;23.294;2023-05-16T08:33:02;94119.53;;;17.94;72.22
11971;BME280;6045;42.682;23.294;2023-05-16T08:35:29;94120.22;;;18.04;71.49
11971;BME280;6045;42.682;23.294;2023-05-16T08:37:56;94123.72;;;18.05;71.35
11971;BME280;6045;42.682;23.294;2023-05-16T08:40:25;94109.63;;;18.08;70.89
11971;BME280;6045;42.682;23.294;2023-05-16T08:42:51;94111.78;;;18.11;70.86
11971;BME280;6045;42.682;23.294;2023-05-16T08:45:21;94120.34;;;18.18;70.71
11971;BME280;6045;42.682;23.294;2023-05-16T08:47:48;94105.78;;;18.32;70.26
11971;BME280;6045;42.682;23.294;2023-05-16T08:50:15;94103.84;;;18.38;69.98
11971;BME280;6045;42.682;23.294;2023-05-16T08:52:43;94090.75;;;18.45;68.61
11971;BME280;6045;42.682;23.294;2023-05-16T08:55:10;94103.63;;;18.58;69.04
11971;BME280;6045;42.682;23.294;2023-05-16T08:57:37;94113.19;;;18.69;67.94
11971;BME280;6045;42.682;23.294;2023-05-16T09:00:06;94129.53;;;18.83;67.61
11971;BME280;6045;42.682;23.294;2023-05-16T09:02:38;94131.72;;;18.99;68.09
11971;BME280;6045;42.682;23.294;2023-05-16T09:05:08;94124.16;;;18.96;67.50
11971;BME280;6045;42.682;23.294;2023-05-16T09:07:36;94127.19;;;18.95;66.83
11971;BME280;6045;42.682;23.294;2023-05-16T09:10:03;94111.94;;;18.99;67.06
11971;BME280;6045;42.682;23.294;2023-05-16T09:12:32;94103.53;;;19.00;66.62
11971;BME280;6045;42.682;23.294;2023-05-16T09:15:00;94100.09;;;18.95;67.07
11971;BME280;6045;42.682;23.294;2023-05-16T09:17:33;94114.38;;;19.00;66.61
11971;BME280;6045;42.682;23.294;2023-05-16T09:20:09;94132.03;;;18.98;66.66
11971;BME280;6045;42.682;23.294;2023-05-16T09:22:36;94110.69;;;18.91;66.86
11971;BME280;6045;42.682;23.294;2023-05-16T09:25:04;94116.22;;;18.86;66.07
11971;BME280;6045;42.682;23.294;2023-05-16T09:27:31;94115.47;;;18.81;66.13
11971;BME280;6045;42.682;23.294;2023-05-16T09:29:58;94116.47;;;18.85;67.22
11971;BME280;6045;42.682;23.294;2023-05-16T09:32:25;94111.50;;;18.92;66.84
11971;BME280;6045;42.682;23.294;2023-05-16T09:34:53;94103.81;;;18.80;66.55
11971;BME280;6045;42.682;23.294;2023-05-16T09:37:24;94088.25;;;18.91;66.99
11971;BME280;6045;42.682;23.294;2023-05-16T09:39:52;94092.78;;;18.95;66.21
11971;BME280;6045;42.682;23.294;2023-05-16T09:42:19;94089.47;;;18.98;66.88
11971;BME280;6045;42.682;23.294;2023-05-16T09:44:48;94084.28;;;19.02;66.81
11971;BME280;6045;42.682;23.294;2023-05-16T09:47:19;94084.28;;;19.02;67.61
11971;BME280;6045;42.682;23.294;2023-05-16T09:49:51;94098.41;;;18.99;67.81
11971;BME280;6045;42.682;23.294;2023-05-16T09:52:19;94096.44;;;19.04;66.63
11971;BME280;6045;42.682;23.294;2023-05-16T09:54:47;94087.94;;;18.92;66.62
11971;BME280;6045;42.682;23.294;2023-05-16T09:57:17;94099.72;;;19.01;66.70
11971;BME280;6045;42.682;23.294;2023-05-16T09:59:44;94089.81;;;19.10;67.02
11971;BME280;6045;42.682;23.294;2023-05-16T10:02:11;94084.13;;;19.12;65.79
11971;BME280;6045;42.682;23.294;2023-05-16T10:04:39;94087.41;;;19.09;66.19
11971;BME280;6045;42.682;23.294;2023-05-16T10:07:06;94094.22;;;19.06;66.69
11971;BME280;6045;42.682;23.294;2023-05-16T10:09:34;94102.34;;;19.06;66.39
11971;BME280;6045;42.682;23.294;2023-05-16T10:12:05;94102.78;;;19.13;66.32
11971;BME280;6045;42.682;23.294;2023-05-16T10:14:35;94102.69;;;19.19;66.41
11971;BME280;6045;42.682;23.294;2023-05-16T10:17:03;94099.56;;;19.11;65.47
11971;BME280;6045;42.682;23.294;2023-05-16T10:19:31;94092.53;;;19.10;66.66
11971;BME280;6045;42.682;23.294;2023-05-16T10:22:03;94109.00;;;19.14;66.24
11971;BME280;6045;42.682;23.294;2023-05-16T10:24:36;94111.63;;;19.19;66.06
11971;BME280;6045;42.682;23.294;2023-05-16T10:27:06;94102.63;;;19.24;65.69
11971;BME280;6045;42.682;23.294;2023-05-16T10:29:33;94097.63;;;19.31;65.49
11971;BME280;6045;42.682;23.294;2023-05-16T10:32:00;94098.13;;;19.33;65.86
11971;BME280;6045;42.682;23.294;2023-05-16T10:34:28;94092.78;;;19.28;66.40
11971;BME280;6045;42.682;23.294;2023-05-16T10:36:55;94076.44;;;19.33;66.37
11971;BME280;6045;42.682;23.294;2023-05-16T10:39:23;94072.34;;;19.35;66.27
11971;BME280;6045;42.682;23.294;2023-05-16T10:41:50;94069.50;;;19.27;66.87
11971;BME280;6045;42.682;23.294;2023-05-16T10:44:18;94057.97;;;19.35;67.55
11971;BME280;6045;42.682;23.294;2023-05-16T10:46:46;94054.94;;;19.55;66.92
11971;BME280;6045;42.682;23.294;2023-05-16T10:49:19;94050.13;;;19.79;65.79
11971;BME280;6045;42.682;23.294;2023-05-16T10:52:01;94062.03;;;19.83;65.65
11971;BME280;6045;42.682;23.294;2023-05-16T10:54:33;94058.41;;;19.88;65.50
11971;BME280;6045;42.682;23.294;2023-05-16T10:57:03;94045.22;;;19.81;65.08
11971;BME280;6045;42.682;23.294;2023-05-16T10:59:40;94046.44;;;19.75;64.84
11971;BME280;6045;42.682;23.294;2023-05-16T11:02:22;94051.13;;;19.69;65.63
11971;BME280;6045;42.682;23.294;2023-05-16T11:04:50;94058.59;;;19.64;65.02
11971;BME280;6045;42.682;23.294;2023-05-16T11:07:18;94059.66;;;19.63;65.39
11971;BME280;6045;42.682;23.294;2023-05-16T11:10:00;94074.31;;;19.48;66.17
11971;BME280;6045;42.682;23.294;2023-05-16T11:12:36;94079.81;;;19.43;66.77
11971;BME280;6045;42.682;23.294;2023-05-16T11:15:18;94098.50;;;19.45;66.74
11971;BME280;6045;42.682;23.294;2023-05-16T11:17:45;94110.25;;;19.40;67.07
11971;BME280;6045;42.682;23.294;2023-05-16T11:20:24;94111.75;;;19.46;67.03
11971;BME280;6045;42.682;23.294;2023-05-16T11:23:21;94106.75;;;19.53;66.38
11971;BME280;6045;42.682;23.294;2023-05-16T11:25:51;94110.22;;;19.72;66.17
11971;BME280;6045;42.682;23.294;2023-05-16T11:28:19;94116.88;;;19.94;66.16
11971;BME280;6045;42.682;23.294;2023-05-16T11:30:49;94093.47;;;20.11;65.84
11971;BME280;6045;42.682;23.294;2023-05-16T11:33:17;94095.16;;;20.21;66.27
11971;BME280;6045;42.682;23.294;2023-05-16T11:35:59;94097.31;;;20.24;67.24
11971;BME280;6045;42.682;23.294;2023-05-16T11:38:29;94089.97;;;20.24;67.96
11971;BME280;6045;42.682;23.294;2023-05-16T11:41:01;94085.94;;;20.35;66.98
11971;BME280;6045;42.682;23.294;2023-05-16T11:43:28;94081.41;;;20.44;67.39
11971;BME280;6045;42.682;23.294;2023-05-16T11:45:56;94101.03;;;20.41;67.49
11971;BME280;6045;42.682;23.294;2023-05-16T11:48:23;94094.56;;;20.37;64.48
11971;BME280;6045;42.682;23.294;2023-05-16T11:50:50;94087.56;;;20.36;64.06
11971;BME280;6045;42.682;23.294;2023-05-16T11:53:19;94088.75;;;20.44;64.54
11971;BME280;6045;42.682;23.294;2023-05-16T11:55:47;94095.28;;;20.43;64.67
11971;BME280;6045;42.682;23.294;2023-05-16T11:58:17;94094.56;;;20.65;64.62
11971;BME280;6045;42.682;23.294;2023-05-16T12:00:47;94088.44;;;20.95;63.63
11971;BME280;6045;42.682;23.294;2023-05-16T12:03:17;94080.75;;;21.33;62.17
11971;BME280;6045;42.682;23.294;2023-05-16T12:05:49;94074.91;;;21.70;61.44
11971;BME280;6045;42.682;23.294;2023-05-16T12:08:17;94056.97;;;21.91;61.99
11971;BME280;6045;42.682;23.294;2023-05-16T12:10:45;94054.63;;;22.07;61.90
11971;BME280;6045;42.682;23.294;2023-05-16T12:13:12;94043.78;;;22.24;60.71
11971;BME280;6045;42.682;23.294;2023-05-16T12:15:39;94050.56;;;22.52;61.33
11971;BME280;6045;42.682;23.294;2023-05-16T12:18:07;94055.13;;;22.82;61.56
11971;BME280;6045;42.682;23.294;2023-05-16T12:20:35;94051.94;;;22.97;60.04
11971;BME280;6045;42.682;23.294;2023-05-16T12:23:02;94054.19;;;23.12;59.11
11971;BME280;6045;42.682;23.294;2023-05-16T12:25:31;94044.88;;;23.31;59.73
11971;BME280;6045;42.682;23.294;2023-05-16T12:27:59;94041.69;;;23.37;59.17
11971;BME280;6045;42.682;23.294;2023-05-16T12:30:27;94042.94;;;23.31;59.09
11971;BME280;6045;42.682;23.294;2023-05-16T12:32:55;94041.50;;;23.25;59.03
11971;BME280;6045;42.682;23.294;2023-05-16T12:35:22;94045.50;;;23.10;59.08
11971;BME280;6045;42.682;23.294;2023-05-16T12:37:51;94057.38;;;22.80;61.11
11971;BME280;6045;42.682;23.294;2023-05-16T12:40:18;94046.25;;;22.51;59.71
11971;BME280;6045;42.682;23.294;2023-05-16T12:42:48;94055.81;;;22.23;60.58
11971;BME280;6045;42.682;23.294;2023-05-16T12:45:16;94050.16;;;22.11;61.64
11971;BME280;6045;42.682;23.294;2023-05-16T12:47:43;94048.31;;;21.89;62.39
11971;BME280;6045;42.682;23.294;2023-05-16T12:50:10;94056.66;;;21.70;63.14
11971;BME280;6045;42.682;23.294;2023-05-16T12:52:45;94047.66;;;21.61;63.77
11971;BME280;6045;42.682;23.294;2023-05-16T12:55:15;94042.84;;;21.58;63.56
11971;BME280;6045;42.682;23.294;2023-05-16T12:57:42;94065.66;;;21.49;64.39
11971;BME280;6045;42.682;23.294;2023-05-16T13:00:11;94066.34;;;21.32;63.60
11971;BME280;6045;42.682;23.294;2023-05-16T13:02:38;94063.84;;;21.13;63.57
11971;BME280;6045;42.682;23.294;2023-05-16T13:05:06;94075.13;;;21.07;65.10
11971;BME280;6045;42.682;23.294;2023-05-16T13:07:33;94068.91;;;20.93;66.08
11971;BME280;6045;42.682;23.294;2023-05-16T13:10:00;94076.41;;;20.74;66.12
11971;BME280;6045;42.682;23.294;2023-05-16T13:12:28;94073.84;;;20.55;66.68